»·PEaware :: N2141Y KSNA-KWHP

N2141Y :: KSNA-KWHP

FLIGHT INFORMATION

Flight Status: Arrived
Operator: Privately registered:
United States
More flights under this callsign
Pilot: Dozie N. (34402)
Aircraft: CESSNA 172 SKYHAWK
(C172)
More flights by this aircraft type
Origin: KSNA John Wayne-Orange Co
United States
Destination: KWHP Whiteman
United States
More flights between these airports :: More routes between these airports
Route: SLI V23 POPPR SMO125 SMO SMO317 CANOG
File this flight plan on PilotEdge
Remarks:
Altitude:
(Current/Filed)
4,000ft
Speed:
(Current/Filed)
120kts
Departed: 01-Aug-23 09:57 AM
Arrived: 01-Aug-23 10:44 AM
Distance/Time
Traveled:
44nm/0:47
Distance/Time
To Go:
Arrived

Flight Plot

Page will automatically refresh every two minutes.


Map Options




Map Legend


Flown Route
Filed Route
Departure Airport
Arrival Airport
Navaid (VOR, NDB)
Fix

Horizontal Profiles

Position Reports

Time Latitude Longitude Heading Altitude Ground
Speed
01-Aug-23 09:38 33.676206 -117.871105 212 60ft 0kts
01-Aug-23 09:39 33.676206 -117.871104 212 60ft 0kts
01-Aug-23 09:40 33.676206 -117.871104 212 60ft 0kts
01-Aug-23 09:41 33.676206 -117.871104 212 60ft 0kts
01-Aug-23 09:42 33.676206 -117.871104 212 60ft 0kts
01-Aug-23 09:43 33.676206 -117.871104 212 60ft 0kts
01-Aug-23 09:44 33.676206 -117.871104 212 60ft 0kts
01-Aug-23 09:45 33.676206 -117.871104 212 60ft 0kts
01-Aug-23 09:46 33.676206 -117.871104 212 60ft 0kts
01-Aug-23 09:47 33.676206 -117.871104 212 60ft 0kts
01-Aug-23 09:48 33.676206 -117.871104 212 60ft 0kts
01-Aug-23 09:49 33.676206 -117.871104 212 60ft 0kts
01-Aug-23 09:50 33.676143 -117.870035 26 60ft 12kts
01-Aug-23 09:51 33.680003 -117.867749 24 60ft 16kts
01-Aug-23 09:52 33.681253 -117.866790 75 60ft 0kts
01-Aug-23 09:53 33.681253 -117.866790 75 60ft 0kts
01-Aug-23 09:54 33.681253 -117.866789 73 60ft 0kts
01-Aug-23 09:55 33.681267 -117.866645 90 60ft 3kts
01-Aug-23 09:56 33.672106 -117.871237 216 303ft 73kts
01-Aug-23 09:57 33.658918 -117.890969 231 1132ft 75kts
01-Aug-23 09:58 33.645232 -117.911115 229 1908ft 78kts
01-Aug-23 09:59 33.630343 -117.933436 236 2610ft 88kts
01-Aug-23 10:00 33.637766 -117.958130 316 3318ft 90kts
01-Aug-23 10:01 33.654621 -117.980021 308 4003ft 90kts
01-Aug-23 10:02 33.673211 -118.009521 304 4105ft 118kts
01-Aug-23 10:03 33.693627 -118.040952 309 4022ft 120kts
01-Aug-23 10:04 33.712836 -118.069748 308 4004ft 121kts
01-Aug-23 10:05 33.732231 -118.102209 303 4032ft 118kts
01-Aug-23 10:06 33.751897 -118.134271 307 4010ft 119kts
01-Aug-23 10:07 33.771464 -118.166678 305 4002ft 119kts
01-Aug-23 10:08 33.790328 -118.199477 308 3989ft 119kts
01-Aug-23 10:09 33.809784 -118.231778 302 3993ft 119kts
01-Aug-23 10:10 33.829013 -118.263814 308 4005ft 119kts
01-Aug-23 10:11 33.849070 -118.295750 313 4009ft 120kts
01-Aug-23 10:12 33.874451 -118.318803 322 4023ft 119kts
01-Aug-23 10:13 33.898732 -118.340481 321 4029ft 119kts
01-Aug-23 10:14 33.923695 -118.365955 317 4042ft 119kts
01-Aug-23 10:15 33.946875 -118.392933 316 4052ft 119kts
01-Aug-23 10:16 33.972448 -118.418640 321 4062ft 119kts
01-Aug-23 10:17 33.997858 -118.444465 318 4073ft 119kts
01-Aug-23 10:18 34.025554 -118.465955 337 4062ft 119kts
01-Aug-23 10:19 34.055365 -118.483579 330 3937ft 118kts
01-Aug-23 10:20 34.084172 -118.503087 331 3932ft 117kts
01-Aug-23 10:21 34.111682 -118.523300 315 4343ft 101kts
01-Aug-23 10:22 34.131222 -118.547221 313 4931ft 110kts
01-Aug-23 10:23 34.154528 -118.575770 316 4892ft 121kts
01-Aug-23 10:24 34.179596 -118.602931 319 4922ft 121kts
01-Aug-23 10:25 34.204695 -118.629741 318 4983ft 121kts
01-Aug-23 10:26 34.227987 -118.659133 310 5003ft 121kts
01-Aug-23 10:27 34.249640 -118.691172 312 4885ft 120kts
01-Aug-23 10:28 34.272963 -118.717460 336 4985ft 117kts
01-Aug-23 10:29 34.305970 -118.716357 4 4991ft 120kts
01-Aug-23 10:30 34.339171 -118.714984 0 4960ft 110kts
01-Aug-23 10:31 34.369252 -118.713641 11 4927ft 109kts
01-Aug-23 10:32 34.380156 -118.685444 118 4971ft 108kts
01-Aug-23 10:33 34.378334 -118.650431 64 4987ft 109kts
01-Aug-23 10:34 34.376028 -118.617524 130 5013ft 107kts
01-Aug-23 10:35 34.358410 -118.592094 124 4762ft 97kts
01-Aug-23 10:36 34.344123 -118.564679 122 4636ft 94kts
01-Aug-23 10:37 34.330270 -118.539311 125 4029ft 90kts
01-Aug-23 10:38 34.315998 -118.514374 121 3443ft 90kts
01-Aug-23 10:39 34.302778 -118.488251 122 2805ft 94kts
01-Aug-23 10:40 34.288615 -118.461606 118 2158ft 93kts
01-Aug-23 10:41 34.275112 -118.436251 122 1562ft 88kts
01-Aug-23 10:42 34.262653 -118.417009 137 1024ft 58kts
01-Aug-23 10:43 34.259482 -118.413017 51 992ft 0kts
01-Aug-23 10:44 34.259288 -118.412314 198 990ft 1kts
01-Aug-23 10:45 34.259353 -118.412449 318 991ft 0kts

Navigation Log

Ident Type
Flight plan parsing failed, navigation log unavailable